Yuricosmos — 3FIC7 — position and weather

sailwx.info

Track history (hours):
 
Tides and Currents Weather Stations Pressure Air Temp Water Temp Dewpoint Dewpoint Depression Visibility Wind Speed Wind Dir Waves Ship Positions

Yuricosmos

Last reported at 2017-Oct-21 21:05 UTC. Time now 2017-Nov-19 18:18 UTC.
Position S 30°52' E 034°38'.
Warning: this ship's position is 28 days out of date.

Length 230 m; draft 8.2 m.

Type: Tanker. MMSI: 354494000.

Date/timePositionNaut miles runAvg speedWind from/ knotsBaromVisibWave heightAir tempDewpointWater temp
2017-Oct-21 21:05S 30°52' E 034°38'7215.5
2017-Oct-21 16:26S 30°22' E 035°54'615.1
2017-Oct-21 16:01S 30°19' E 036°01'815.5
2017-Oct-21 15:30S 30°15' E 036°09'715.3
2017-Oct-21 15:00S 30°12' E 036°17'1615.3
2017-Oct-21 13:59S 30°06' E 036°33'1115.2
2017-Oct-21 13:16S 30°01' E 036°45'715.0
2017-Oct-21 12:47S 29°58' E 036°52'415.0
2017-Oct-21 12:30S 29°56' E 036°57'  
Track history (hours):
 
Tides and Currents Weather Stations Pressure Air Temp Water Temp Dewpoint Dewpoint Depression Visibility Wind Speed Wind Dir Waves Ship Positions

Yuricosmos

Last reported at 2017-Oct-21 21:05 UTC. Time now 2017-Nov-19 18:18 UTC.
Position S 30°52' E 034°38'.
Warning: this ship's position is 28 days out of date.

Length 230 m; draft 8.2 m.

Type: Tanker. MMSI: 354494000.

Date/timePositionNaut miles runAvg speedWind from/ knotsBaromVisibWave heightAir tempDewpointWater temp
2017-Oct-21 21:05S 30°52' E 034°38'7215.5
2017-Oct-21 16:26S 30°22' E 035°54'615.1
2017-Oct-21 16:01S 30°19' E 036°01'815.5
2017-Oct-21 15:30S 30°15' E 036°09'715.3
2017-Oct-21 15:00S 30°12' E 036°17'1615.3
2017-Oct-21 13:59S 30°06' E 036°33'1115.2
2017-Oct-21 13:16S 30°01' E 036°45'715.0
2017-Oct-21 12:47S 29°58' E 036°52'415.0
2017-Oct-21 12:30S 29°56' E 036°57'  

Dump ship's entire track history